Rajecký maratón - Rajecký inline polmaratón

Běh
DÁTUM :14.8.2021 MIESTO :Rajec

Přehled vybraných závodníků

Zde bude přehled vybraných závodníků. Aktuálně je výběr prázdný.
EXPORTOVAŤ :   XLS
Výsledky -
Načítanie…
Poradie Číslo Meno Nár. Roč. Klub Čas Strata
ZOBRAZIŤ NA STRÁNKE
Poradie Číslo Meno Nár. Roč. Klub Čas Strata
1 13 detail pretekára HASTÍK Kamil CZE 1977 Tempish Heartbeat inline 0:41:14.4 0:00:00.0
2 8 detail pretekára DZURÁK Pavol SVK 1980 Borievka Inline team 0:41:34.8 0:00:20.4
3 37 detail pretekára SMUDA Miro SVK 1979 CSC Košice 0:44:07.9 0:02:53.5
4 31 detail pretekára PETRO Pavol SVK 1972 RKIC Košice 0:44:10.7 0:02:56.3
5 27 detail pretekára NEMEC Henrich SVK 1973 Ludanice 0:46:05.6 0:04:51.2
6 43 detail pretekára VAŠKO Marián SVK 1978 CSC Košice 0:47:20.5 0:06:06.1
7 44 detail pretekára VRÁBEL Marián SVK 1980 Žabiačik Žilina 0:47:44.0 0:06:29.6
8 35 detail pretekára SCHOLZ Lukáš CZE 1988 Powerslide CZ 0:48:15.4 0:07:01.0
9 36 detail pretekára SLOTTA Martin SVK 1991 Inline Club Žilina 0:48:15.8 0:07:01.4
10 9 detail pretekára ENGLER Jakub SVK 1988 RRTC 0:48:16.2 0:07:01.7
11 23 detail pretekára MARŠINSKÝ Michal SVK 1981 DK 0:48:16.9 0:07:02.5
12 28 detail pretekára ONDRUŠ Milan SVK 1972 Žilina 0:48:43.6 0:07:29.2
13 14 detail pretekára HLAVOŇ Michal SVK 1987 Inline Club Žilina 0:51:38.1 0:10:23.7
14 21 detail pretekára KRÁLIK Anton SVK 1984 Žilina 0:54:01.4 0:12:46.9
15 25 detail pretekára MLATIČEK Erik SVK 1988 Košická Polianka 0:55:31.6 0:14:17.2
16 26 detail pretekára MOTYKA Peter SVK 1976 IVANOVCE 0:55:32.6 0:14:18.2
17 19 detail pretekára KASANICKÝ Marek SVK 1985 Kst Stavbár Žilina 0:55:42.5 0:14:28.1
18 17 detail pretekára JANŽO Michal SVK 1976 Rajec 0:56:04.2 0:14:49.8
19 11 detail pretekára GUELI Giovanni ITA 1983 JG Team Pressure 0:57:36.6 0:16:22.1
20 40 detail pretekára TRN Tomáš SVK 1984 TrnLine 0:59:55.8 0:18:41.3
21 33 detail pretekára PIROŠIK Peter SVK 1982 Žilina 1:00:08.9 0:18:54.4
22 42 detail pretekára VALENT Peter SVK 1973 BRATISLAVA 1:00:36.9 0:19:22.5
23 30 detail pretekára PETRÍK Ľubomír SVK 1987 Pernek 1:01:36.1 0:20:21.7
24 10 detail pretekára FURIČKA Jaroslav SVK 1986 Dubnica nad Váhom 1:02:31.3 0:21:16.9
25 29 detail pretekára PAVELČÍK Vladimír SVK 1973 Žilina 1:03:08.4 0:21:54.0
26 18 detail pretekára KARLIK Dušan SVK 1975 Muziker 1:03:11.0 0:21:56.6
27 5 detail pretekára DÁVIDÍK Jozef SVK 1973 Žilina 1:03:17.1 0:22:02.6
28 39 detail pretekára ŠUPEJ Róbert SVK 1974 PERI 1:03:43.6 0:22:29.2
29 20 detail pretekára KOČNER Vladimír SVK 1983 Lalinok 1:05:12.1 0:23:57.6
30 22 detail pretekára LÍŠKA Juraj SVK 1985 Dubnica nad Váhom 1:05:34.7 0:24:20.3
31 24 detail pretekára MASTALIČ Peter SVK 1980 Žilina 1:07:18.1 0:26:03.7
32 12 detail pretekára GYORGY Robert SVK 1974 Muziker 1:10:34.0 0:29:19.5
33 3 detail pretekára BAČA René SVK 1977 Čičmany 1:12:14.2 0:30:59.8
34 34 detail pretekára SÁDECKÝ Matúš SVK 1990 Čičmany 1:14:41.6 0:33:27.1
35 38 detail pretekára ŠČIBRANY Jozef SVK 1977 Fitcentrum W.M.Rača 1:24:07.3 0:42:52.9
36 16 detail pretekára HUPKA Augustin SVK 1976 PLATINUM REAL 1:24:07.4 0:42:52.9
37 41 detail pretekára VÁGAI Marek SVK 1973 BRATISLAVA 1:50:45.9 1:09:31.5

Kontaktujte časomíru